createdAt,value
2023-11-07T00:01:27.276Z,9.50
2023-11-07T00:04:01.335Z,6.60
2023-11-07T00:06:34.550Z,8.98
2023-11-07T00:09:07.569Z,7.78
2023-11-07T00:11:40.580Z,5.60
2023-11-07T00:14:13.460Z,4.43
2023-11-07T00:16:47.611Z,5.97
2023-11-07T00:19:20.367Z,6.50
2023-11-07T00:21:53.542Z,6.18
2023-11-07T00:24:26.523Z,8.02
2023-11-07T00:26:59.777Z,6.13
2023-11-07T00:29:32.547Z,5.68
2023-11-07T00:32:07.481Z,7.20
2023-11-07T00:37:13.823Z,11.18
2023-11-07T00:39:46.578Z,6.97
2023-11-07T00:42:19.503Z,7.40
2023-11-07T00:44:52.285Z,4.57
2023-11-07T00:47:26.430Z,8.15
2023-11-07T00:49:59.156Z,6.07
2023-11-07T00:52:31.854Z,6.50
2023-11-07T00:55:04.663Z,5.07
2023-11-07T00:57:37.293Z,7.30
2023-11-07T01:00:10.481Z,7.65
2023-11-07T01:02:46.276Z,9.00
2023-11-07T01:05:19.750Z,7.68
2023-11-07T01:07:52.566Z,5.88
2023-11-07T01:10:25.246Z,6.68
2023-11-07T01:12:57.920Z,7.30
2023-11-07T01:15:30.666Z,8.13
2023-11-07T01:18:05.916Z,8.70
2023-11-07T01:23:11.648Z,7.63
2023-11-07T01:25:44.435Z,9.57
2023-11-07T01:28:21.698Z,6.38
2023-11-07T01:30:55.826Z,6.47
2023-11-07T01:33:29.877Z,6.27
2023-11-07T01:36:02.658Z,8.33
2023-11-07T01:38:35.584Z,6.65
2023-11-07T01:41:08.626Z,7.32
2023-11-07T01:43:41.457Z,7.10
2023-11-07T01:46:14.309Z,4.65
2023-11-07T01:48:48.763Z,8.50
2023-11-07T01:51:21.936Z,6.72
2023-11-07T01:53:55.995Z,6.95
2023-11-07T01:56:29.688Z,6.45
2023-11-07T01:59:03.217Z,6.80
2023-11-07T02:01:36.869Z,4.45
2023-11-07T02:04:11.535Z,6.18
2023-11-07T02:09:17.117Z,6.32
2023-11-07T02:11:49.993Z,4.03
2023-11-07T02:14:29.879Z,9.15
2023-11-07T02:17:02.850Z,7.20
2023-11-07T02:19:36.899Z,7.72
2023-11-07T02:22:11.225Z,6.83
2023-11-07T02:24:45.373Z,7.47
2023-11-07T02:27:19.509Z,8.93
2023-11-07T02:29:52.231Z,8.97
2023-11-07T02:32:25.004Z,6.50
2023-11-07T02:34:57.680Z,8.38
2023-11-07T02:37:30.391Z,8.02
2023-11-07T02:40:05.173Z,7.63
2023-11-07T02:42:37.865Z,6.82
2023-11-07T02:45:11.171Z,4.68
2023-11-07T02:47:44.008Z,8.23
2023-11-07T02:50:17.354Z,6.57
2023-11-07T02:52:50.229Z,7.53
2023-11-07T02:55:25.508Z,6.15
2023-11-07T02:57:58.577Z,6.72
2023-11-07T03:00:31.262Z,4.65
2023-11-07T03:03:04.958Z,5.43
2023-11-07T03:05:37.906Z,7.00
2023-11-07T03:08:10.403Z,6.85
2023-11-07T03:10:44.547Z,5.10
2023-11-07T03:13:19.284Z,6.03
2023-11-07T03:15:51.971Z,4.43
2023-11-07T03:18:24.813Z,6.45
2023-11-07T03:20:57.763Z,4.60
2023-11-07T03:23:30.483Z,6.90
2023-11-07T03:26:05.575Z,4.82
2023-11-07T03:28:38.331Z,4.45
2023-11-07T03:31:11.053Z,4.90
2023-11-07T03:33:43.958Z,4.57
2023-11-07T03:36:16.934Z,6.15
2023-11-07T03:38:49.694Z,4.80
2023-11-07T03:41:25.717Z,6.88
2023-11-07T03:43:58.623Z,3.92
2023-11-07T03:46:31.759Z,4.97
2023-11-07T03:49:04.969Z,4.50
2023-11-07T03:51:37.865Z,5.05
2023-11-07T03:54:10.719Z,3.58
2023-11-07T03:56:47.177Z,5.85
2023-11-07T03:59:20.046Z,5.78
2023-11-07T04:01:53.765Z,4.30
2023-11-07T04:04:26.521Z,4.70
2023-11-07T04:06:59.335Z,5.43
2023-11-07T04:09:32.007Z,3.75
2023-11-07T04:12:07.112Z,4.45
2023-11-07T04:17:12.279Z,5.10
2023-11-07T04:19:44.917Z,4.82
2023-11-07T04:22:17.587Z,3.58
2023-11-07T04:24:50.226Z,4.45
2023-11-07T04:27:24.625Z,5.85
2023-11-07T04:29:57.833Z,4.03
2023-11-07T04:32:31.579Z,5.35
2023-11-07T04:35:06.609Z,3.15
2023-11-07T04:37:39.812Z,3.33
2023-11-07T04:40:13.396Z,2.70
2023-11-07T04:42:47.433Z,3.17
2023-11-07T04:45:22.100Z,3.58
2023-11-07T04:47:56.215Z,3.38
2023-11-07T04:50:28.991Z,2.30
2023-11-07T04:53:05.317Z,3.42
2023-11-07T04:55:38.037Z,4.00
2023-11-07T04:58:13.610Z,3.58
2023-11-07T05:00:46.518Z,3.53
2023-11-07T05:03:27.489Z,3.53
2023-11-07T05:06:06.384Z,3.03
2023-11-07T05:08:39.489Z,2.80
2023-11-07T05:11:13.547Z,3.28
2023-11-07T05:13:47.953Z,5.82
2023-11-07T05:16:21.569Z,4.22
2023-11-07T05:18:54.642Z,3.03
2023-11-07T05:21:27.875Z,3.25
2023-11-07T05:24:00.576Z,2.28
2023-11-07T05:26:33.668Z,4.45
2023-11-07T05:29:07.918Z,3.65
2023-11-07T05:31:41.049Z,3.83
2023-11-07T05:34:13.736Z,3.78
2023-11-07T05:36:47.741Z,4.60
2023-11-07T05:39:20.437Z,2.72
2023-11-07T05:41:53.182Z,3.72
2023-11-07T05:44:27.176Z,3.08
2023-11-07T05:46:59.852Z,3.00
2023-11-07T05:49:32.608Z,3.03
2023-11-07T05:52:05.708Z,3.17
2023-11-07T05:54:38.445Z,2.42
2023-11-07T05:57:11.282Z,2.78
2023-11-07T05:59:45.606Z,2.40
2023-11-07T06:02:18.316Z,1.53
2023-11-07T06:04:51.006Z,4.07
2023-11-07T06:07:24.241Z,4.75
2023-11-07T06:09:57.545Z,3.03
2023-11-07T06:12:30.322Z,3.28
2023-11-07T06:15:04.910Z,4.30
2023-11-07T06:17:38.033Z,4.88
2023-11-07T06:20:11.347Z,4.82
2023-11-07T06:22:44.057Z,3.67
2023-11-07T06:25:17.432Z,2.88
2023-11-07T06:27:51.751Z,6.03
2023-11-07T06:30:30.768Z,3.38
2023-11-07T06:33:03.739Z,4.07
2023-11-07T06:35:36.718Z,2.80
2023-11-07T06:38:09.650Z,3.53
2023-11-07T06:40:42.330Z,3.95
2023-11-07T06:43:15.028Z,3.67
2023-11-07T06:45:49.227Z,5.15
2023-11-07T06:48:21.977Z,3.13
2023-11-07T06:50:55.677Z,2.78
2023-11-07T06:53:29.552Z,4.63
2023-11-07T06:56:02.213Z,4.53
2023-11-07T06:58:35.040Z,4.47
2023-11-07T07:01:10.688Z,2.25
2023-11-07T07:03:43.553Z,4.13
2023-11-07T07:06:16.562Z,5.32
2023-11-07T07:08:49.338Z,5.05
2023-11-07T07:11:22.195Z,4.10
2023-11-07T07:13:56.931Z,3.95
2023-11-07T07:16:33.240Z,3.65
2023-11-07T07:19:08.735Z,3.63
2023-11-07T07:21:41.998Z,5.65
2023-11-07T07:24:22.468Z,4.97
2023-11-07T07:26:55.835Z,5.30
2023-11-07T07:29:28.771Z,4.38
2023-11-07T07:32:04.418Z,4.18
2023-11-07T07:34:37.198Z,4.22
2023-11-07T07:37:11.201Z,3.15
2023-11-07T07:39:45.429Z,3.33
2023-11-07T07:42:19.128Z,3.67
2023-11-07T07:44:51.989Z,4.97
2023-11-07T07:47:26.141Z,3.63
2023-11-07T07:49:58.856Z,5.43
2023-11-07T07:52:33.238Z,4.68
2023-11-07T07:55:16.350Z,3.60
2023-11-07T07:58:00.083Z,3.00
2023-11-07T08:00:33.221Z,3.65
2023-11-07T08:03:10.094Z,2.95
2023-11-07T08:05:45.094Z,2.65
2023-11-07T08:08:17.942Z,2.08
2023-11-07T08:10:52.956Z,2.75
2023-11-07T08:15:59.130Z,5.45
2023-11-07T08:18:34.801Z,4.22
2023-11-07T08:21:09.297Z,4.22
2023-11-07T08:23:42.327Z,3.90
2023-11-07T08:26:15.579Z,3.28
2023-11-07T08:28:49.278Z,5.07
2023-11-07T08:31:23.985Z,5.28
2023-11-07T08:33:59.996Z,3.90
2023-11-07T08:36:36.539Z,3.45
2023-11-07T08:39:17.741Z,3.78
2023-11-07T08:41:50.963Z,4.03
2023-11-07T08:44:24.302Z,5.35
2023-11-07T08:46:58.372Z,4.05
2023-11-07T08:49:33.458Z,3.92
2023-11-07T08:52:07.326Z,3.95
2023-11-07T08:54:40.390Z,3.08
2023-11-07T08:57:13.084Z,4.65
2023-11-07T08:59:46.700Z,4.20
2023-11-07T09:02:19.955Z,3.30
2023-11-07T09:04:54.147Z,4.47
2023-11-07T09:07:26.956Z,4.80
2023-11-07T09:10:00.187Z,3.88
2023-11-07T09:12:33.288Z,2.92
2023-11-07T09:15:07.127Z,4.85
2023-11-07T09:17:40.491Z,3.15
2023-11-07T09:20:16.012Z,4.50
2023-11-07T09:22:49.872Z,3.97
2023-11-07T09:25:23.428Z,5.45
2023-11-07T09:27:57.806Z,4.38
2023-11-07T09:30:30.630Z,4.45
2023-11-07T09:33:04.905Z,4.28
2023-11-07T09:35:39.332Z,4.03
2023-11-07T09:38:12.375Z,6.93
2023-11-07T09:40:45.755Z,5.90
2023-11-07T09:43:20.817Z,6.85
2023-11-07T09:45:56.939Z,4.30
2023-11-07T09:48:29.875Z,4.75
2023-11-07T09:51:06.876Z,5.55
2023-11-07T09:53:41.721Z,4.97
2023-11-07T09:58:51.825Z,6.05
2023-11-07T10:01:25.280Z,5.25
2023-11-07T10:04:00.178Z,4.75
2023-11-07T10:09:08.297Z,5.93
2023-11-07T10:11:46.590Z,6.35
2023-11-07T10:14:21.351Z,4.50
2023-11-07T10:16:55.009Z,5.78
2023-11-07T10:19:28.771Z,4.68
2023-11-07T10:22:07.469Z,5.05
2023-11-07T10:24:47.778Z,8.57
2023-11-07T10:27:30.033Z,6.28
2023-11-07T10:30:05.944Z,5.45
2023-11-07T10:32:46.771Z,6.90
2023-11-07T10:35:19.721Z,4.53
2023-11-07T10:37:52.780Z,6.03
2023-11-07T10:40:28.127Z,7.45
2023-11-07T10:43:02.307Z,5.13
2023-11-07T10:45:35.884Z,3.78
2023-11-07T10:48:09.423Z,5.97
2023-11-07T10:50:44.483Z,4.35
2023-11-07T10:53:17.514Z,6.43
2023-11-07T10:55:53.306Z,3.85
2023-11-07T10:58:28.185Z,3.78
2023-11-07T11:03:35.772Z,3.78
2023-11-07T11:06:09.840Z,5.47
2023-11-07T11:08:44.703Z,5.93
2023-11-07T11:11:20.340Z,4.35
2023-11-07T11:13:53.642Z,3.58
2023-11-07T11:16:27.846Z,4.63
2023-11-07T11:19:03.667Z,2.92
2023-11-07T11:21:39.317Z,3.80
2023-11-07T11:24:17.130Z,4.95
2023-11-07T11:26:56.533Z,3.65
2023-11-07T11:29:29.671Z,3.63
2023-11-07T11:32:22.348Z,4.90
2023-11-07T11:34:59.496Z,5.63
2023-11-07T11:38:01.615Z,4.78
2023-11-07T11:40:54.338Z,3.35
2023-11-07T11:43:28.929Z,7.32
2023-11-07T11:46:28.046Z,4.15
2023-11-07T11:49:08.533Z,5.60
2023-11-07T11:51:42.937Z,3.17
2023-11-07T11:54:17.541Z,3.38
2023-11-07T11:57:07.244Z,3.60
2023-11-07T11:59:55.120Z,4.00
2023-11-07T12:02:37.797Z,3.20
2023-11-07T12:05:13.203Z,3.33
2023-11-07T12:10:21.953Z,3.05
2023-11-07T12:12:58.936Z,2.60
2023-11-07T12:15:34.470Z,4.18
2023-11-07T12:18:07.412Z,3.42
2023-11-07T12:20:42.102Z,2.33
2023-11-07T12:23:16.641Z,3.50
2023-11-07T12:28:23.504Z,3.90
2023-11-07T12:30:58.052Z,2.65
2023-11-07T12:33:40.497Z,2.63
2023-11-07T12:36:14.717Z,2.05
2023-11-07T12:38:48.058Z,1.63
2023-11-07T12:41:20.886Z,4.47
2023-11-07T12:43:53.608Z,3.50
2023-11-07T12:46:28.598Z,2.88
2023-11-07T12:49:01.495Z,2.03
2023-11-07T12:51:37.599Z,3.38
2023-11-07T12:54:10.301Z,2.45
2023-11-07T12:56:43.850Z,2.33
2023-11-07T12:59:18.717Z,3.10
2023-11-07T13:04:25.288Z,1.52
2023-11-07T13:06:58.482Z,1.83
2023-11-07T13:09:33.078Z,2.28
2023-11-07T13:14:38.750Z,2.00
2023-11-07T13:17:12.603Z,2.08
2023-11-07T13:19:51.357Z,2.58
2023-11-07T13:22:24.554Z,4.10
2023-11-07T13:24:57.275Z,1.85
2023-11-07T13:27:30.007Z,2.70
2023-11-07T13:30:06.450Z,2.45
2023-11-07T13:32:39.971Z,3.22
2023-11-07T13:35:17.482Z,3.05
2023-11-07T13:37:51.855Z,3.50
2023-11-07T13:40:24.549Z,2.47
2023-11-07T13:42:58.493Z,2.35
2023-11-07T13:45:31.233Z,2.97
2023-11-07T13:48:04.408Z,2.90
2023-11-07T13:50:39.641Z,3.72
2023-11-07T13:55:46.280Z,2.78
2023-11-07T13:58:21.346Z,1.70
2023-11-07T14:00:54.229Z,2.80
2023-11-07T14:03:28.498Z,1.65
2023-11-07T14:06:02.858Z,2.53
2023-11-07T14:08:36.204Z,3.17
2023-11-07T14:11:09.070Z,1.48
2023-11-07T14:13:41.734Z,1.67
2023-11-07T14:16:15.138Z,1.17
2023-11-07T14:18:49.966Z,2.95
2023-11-07T14:21:24.923Z,1.55
2023-11-07T14:26:31.094Z,2.17
2023-11-07T14:29:26.669Z,2.58
2023-11-07T14:32:02.697Z,3.08
2023-11-07T14:34:35.701Z,2.90
2023-11-07T14:37:09.893Z,4.78
2023-11-07T14:39:43.069Z,3.20
2023-11-07T14:42:17.602Z,3.53
2023-11-07T14:44:50.579Z,3.15
2023-11-07T14:47:23.398Z,2.00
2023-11-07T14:49:57.201Z,2.60
2023-11-07T14:52:31.200Z,2.33
2023-11-07T14:55:05.232Z,2.17
2023-11-07T14:57:38.370Z,2.10
2023-11-07T15:00:15.584Z,2.63
2023-11-07T15:02:48.394Z,2.38
2023-11-07T15:05:21.175Z,2.83
2023-11-07T15:07:55.734Z,1.85
2023-11-07T15:10:28.989Z,3.95
2023-11-07T15:13:02.177Z,3.65
2023-11-07T15:15:35.225Z,5.95
2023-11-07T15:18:11.467Z,4.50
2023-11-07T15:20:44.789Z,3.33
2023-11-07T15:23:18.918Z,2.17
2023-11-07T15:25:51.622Z,2.15
2023-11-07T15:28:24.332Z,3.30
2023-11-07T15:30:57.120Z,4.10
2023-11-07T15:33:30.007Z,1.75
2023-11-07T15:36:02.883Z,1.85
2023-11-07T15:38:37.237Z,5.70
2023-11-07T15:41:09.938Z,1.80
2023-11-07T15:43:45.469Z,2.13
2023-11-07T15:46:18.338Z,3.50
2023-11-07T15:48:51.199Z,1.45
2023-11-07T15:51:25.709Z,2.75
2023-11-07T15:54:03.267Z,2.85
2023-11-07T15:56:36.075Z,2.97
2023-11-07T15:59:11.723Z,1.95
2023-11-07T16:01:45.469Z,3.72
2023-11-07T16:04:18.862Z,3.65
2023-11-07T16:06:51.654Z,3.40
2023-11-07T16:09:25.766Z,4.15
2023-11-07T16:11:58.600Z,3.05
2023-11-07T16:14:33.219Z,2.17
2023-11-07T16:17:06.127Z,2.00
2023-11-07T16:19:38.854Z,2.47
2023-11-07T16:22:14.028Z,3.92
2023-11-07T16:24:48.139Z,2.65
2023-11-07T16:27:21.675Z,2.03
2023-11-07T16:29:56.218Z,3.65
2023-11-07T16:32:29.230Z,4.55
2023-11-07T16:35:01.968Z,3.65
2023-11-07T16:37:35.814Z,3.85
2023-11-07T16:40:13.239Z,2.85
2023-11-07T16:42:48.243Z,2.80
2023-11-07T16:45:21.326Z,3.38
2023-11-07T16:47:54.115Z,2.65
2023-11-07T16:50:27.043Z,4.38
2023-11-07T16:52:59.914Z,3.10
2023-11-07T16:55:33.966Z,2.78
2023-11-07T16:58:07.114Z,3.03
2023-11-07T17:00:39.843Z,4.93
2023-11-07T17:03:14.841Z,2.33
2023-11-07T17:05:47.792Z,3.03
2023-11-07T17:08:22.598Z,3.75
2023-11-07T17:13:29.249Z,4.25
2023-11-07T17:16:02.154Z,2.60
2023-11-07T17:18:35.543Z,3.83
2023-11-07T17:26:18.430Z,4.10
2023-11-07T17:28:52.632Z,4.18
2023-11-07T17:31:25.304Z,3.83
2023-11-07T17:33:58.034Z,3.80
2023-11-07T17:36:31.820Z,4.25
2023-11-07T17:39:05.201Z,4.78
2023-11-07T17:41:38.317Z,2.92
2023-11-07T17:44:12.526Z,4.43
2023-11-07T17:46:45.896Z,5.80
2023-11-07T17:49:19.418Z,5.20
2023-11-07T17:51:52.353Z,6.00
2023-11-07T17:54:25.355Z,3.58
2023-11-07T17:56:58.553Z,3.50
2023-11-07T17:59:32.676Z,5.07
2023-11-07T18:02:05.737Z,4.75
2023-11-07T18:07:45.561Z,4.03
2023-11-07T18:10:18.971Z,6.10
2023-11-07T19:17:02.294Z,5.57
2023-11-07T19:19:36.919Z,4.10
2023-11-07T19:22:09.620Z,4.97
2023-11-07T19:24:42.522Z,5.38
2023-11-07T19:27:18.202Z,4.63
2023-11-07T19:29:51.340Z,5.75
2023-11-07T19:32:25.759Z,5.93
2023-11-07T19:34:58.721Z,5.43
2023-11-07T19:37:32.077Z,7.93
2023-11-07T19:40:05.853Z,5.60
2023-11-07T19:42:38.639Z,8.13
2023-11-07T19:45:11.819Z,4.85
2023-11-07T19:47:46.356Z,4.60
2023-11-07T19:50:19.126Z,6.23
2023-11-07T19:52:57.827Z,4.70
2023-11-07T19:55:38.929Z,3.88
2023-11-07T19:58:12.178Z,6.65
2023-11-07T20:00:45.987Z,6.22
2023-11-07T20:03:20.720Z,4.97
2023-11-07T20:05:53.468Z,8.23
2023-11-07T20:08:29.696Z,4.80
2023-11-07T20:11:02.527Z,6.15
2023-11-07T20:13:35.715Z,4.22
2023-11-07T20:16:09.451Z,5.43
2023-11-07T20:18:43.546Z,4.28
2023-11-07T20:21:17.418Z,6.82
2023-11-07T20:23:50.552Z,5.63
2023-11-07T20:26:23.542Z,5.18
2023-11-07T20:28:57.623Z,6.80
2023-11-07T20:31:33.387Z,5.80
2023-11-07T20:34:07.506Z,7.13
2023-11-07T20:36:40.335Z,6.80
2023-11-07T20:39:13.264Z,6.88
2023-11-07T20:41:46.661Z,6.70
2023-11-07T20:44:24.179Z,6.10
2023-11-07T20:47:02.010Z,4.50
2023-11-07T20:49:36.166Z,6.25
2023-11-07T20:52:18.417Z,6.57
2023-11-07T20:54:56.146Z,5.82
2023-11-07T20:57:29.163Z,6.03
2023-11-07T21:00:02.339Z,10.77
2023-11-07T21:02:35.155Z,5.70
2023-11-07T21:05:09.988Z,4.47
2023-11-07T21:07:43.713Z,6.50
2023-11-07T21:10:16.514Z,6.55
2023-11-07T21:12:49.320Z,8.52
2023-11-07T21:15:22.601Z,9.20
2023-11-07T21:17:56.650Z,6.03
2023-11-07T21:20:31.091Z,4.45
2023-11-07T21:23:03.814Z,5.17
2023-11-07T21:25:36.538Z,5.53
2023-11-07T21:28:10.094Z,6.57
2023-11-07T21:30:42.883Z,4.85
2023-11-07T21:33:16.485Z,4.43
2023-11-07T21:35:53.117Z,5.82
2023-11-07T21:38:26.912Z,5.63
2023-11-07T21:40:59.583Z,7.80
2023-11-07T21:43:32.356Z,8.10
2023-11-07T21:46:05.281Z,5.97
2023-11-07T21:48:38.082Z,11.38
2023-11-07T21:51:13.841Z,5.60
2023-11-07T21:53:46.598Z,4.20
2023-11-07T21:56:22.582Z,6.03
2023-11-07T21:58:55.555Z,8.40
2023-11-07T22:01:28.426Z,7.55
2023-11-07T22:04:01.196Z,5.22
2023-11-07T22:06:35.508Z,6.40
2023-11-07T22:09:09.181Z,6.88
2023-11-07T22:11:42.243Z,5.45
2023-11-07T22:14:15.881Z,5.38
2023-11-07T22:16:48.793Z,6.00
2023-11-07T22:19:21.845Z,5.47
2023-11-07T22:21:57.471Z,8.82
2023-11-07T22:24:32.001Z,4.13
2023-11-07T22:27:05.633Z,4.38
2023-11-07T22:29:38.739Z,7.25
2023-11-07T22:32:12.100Z,8.35
2023-11-07T22:34:44.836Z,5.90
2023-11-07T22:37:19.146Z,6.50
2023-11-07T22:39:51.826Z,6.70
2023-11-07T22:42:24.566Z,7.28
2023-11-07T22:44:57.307Z,5.28
2023-11-07T22:47:30.079Z,5.68
2023-11-07T22:50:02.756Z,4.85
2023-11-07T22:52:36.804Z,6.10
2023-11-07T22:55:12.314Z,6.72
2023-11-07T22:57:45.600Z,6.28
2023-11-07T23:00:28.982Z,6.57
2023-11-07T23:03:03.402Z,6.65
2023-11-07T23:05:38.026Z,7.80
2023-11-07T23:08:12.249Z,6.82
2023-11-07T23:10:45.583Z,4.88
2023-11-07T23:13:18.473Z,5.03
2023-11-07T23:15:51.303Z,6.43
2023-11-07T23:18:24.102Z,4.25
2023-11-07T23:20:57.116Z,4.82
2023-11-07T23:23:31.443Z,5.63
2023-11-07T23:26:04.646Z,6.75
2023-11-07T23:28:37.682Z,5.70
2023-11-07T23:31:10.606Z,9.27
2023-11-07T23:33:44.424Z,8.15
2023-11-07T23:36:17.255Z,6.72
2023-11-07T23:38:51.538Z,7.47
2023-11-07T23:41:24.603Z,6.40
2023-11-07T23:43:57.583Z,4.47
2023-11-07T23:46:30.332Z,5.72
2023-11-07T23:49:03.023Z,5.93
2023-11-07T23:51:35.783Z,6.68
2023-11-07T23:54:09.953Z,8.07
2023-11-07T23:56:42.666Z,5.83
2023-11-07T23:59:16.111Z,7.50
